Time;durP1;ratioP1;P1;durP2;ratioP2;P2;SDS_P1;SDS_P2;PMS_P1;PMS_P2;Temp;Humidity;BMP_temperature;BMP_pressure;BME280_temperature;BME280_humidity;BME280_pressure;Samples;Min_cycle;Max_cycle;Signal;HPM_P1;HPM_P2
2022/02/16 00:02:02;;;;;;;0.50;0.50;;;;;;;5.13;64.94;98573.81;4950250;28;20035;-72
2022/02/16 00:04:27;;;;;;;0.73;0.73;;;;;;;5.10;63.82;98562.66;4942407;29;20031;-71
2022/02/16 00:06:53;;;;;;;0.60;0.60;;;;;;;5.00;64.18;98566.09;4952840;29;20034;-72
2022/02/16 00:09:18;;;;;;;0.57;0.57;;;;;;;4.94;64.90;98551.53;4953951;29;20217;-72
2022/02/16 00:11:43;;;;;;;0.50;0.50;;;;;;;5.08;64.13;98551.56;4953922;28;20453;-72
2022/02/16 00:14:09;;;;;;;0.60;0.60;;;;;;;5.13;63.29;98547.28;4953917;29;20026;-71
2022/02/16 00:16:34;;;;;;;0.70;0.70;;;;;;;5.16;63.35;98552.38;4953769;29;20160;-71
2022/02/16 00:18:59;;;;;;;0.60;0.60;;;;;;;5.18;63.41;98548.13;4953768;29;20058;-72
2022/02/16 00:21:24;;;;;;;0.57;0.57;;;;;;;4.90;64.84;98548.13;4953814;28;20038;-72
2022/02/16 00:23:50;;;;;;;0.50;0.50;;;;;;;4.99;64.74;98551.56;4953707;29;20037;-72
2022/02/16 00:26:15;;;;;;;0.50;0.50;;;;;;;5.10;63.74;98542.13;4953772;29;20027;-71
2022/02/16 00:28:40;;;;;;;0.50;0.50;;;;;;;5.11;63.45;98548.97;4953827;28;20058;-72
2022/02/16 00:31:06;;;;;;;0.50;0.50;;;;;;;4.96;64.95;98544.69;4953539;28;20480;-72
2022/02/16 00:33:31;;;;;;;0.50;0.50;;;;;;;5.03;63.90;98550.66;4945880;29;20023;-72
2022/02/16 00:35:56;;;;;;;0.50;0.50;;;;;;;5.21;62.75;98550.69;4945494;29;20027;-71
2022/02/16 00:38:22;;;;;;;0.50;0.50;;;;;;;5.12;63.48;98550.66;4953668;29;20460;-72
2022/02/16 00:40:47;;;;;;;0.50;0.50;;;;;;;5.12;63.18;98535.25;4953533;28;20027;-71
2022/02/16 00:43:12;;;;;;;1.02;0.60;;;;;;;5.03;63.71;98551.56;4936458;29;20086;-71
2022/02/16 00:45:38;;;;;;;0.60;0.60;;;;;;;5.06;63.62;98545.53;4953589;29;20087;-71
2022/02/16 00:48:03;;;;;;;0.50;0.50;;;;;;;5.08;64.00;98551.56;4953397;29;20162;-72
2022/02/16 00:50:29;;;;;;;0.55;0.55;;;;;;;5.17;63.85;98548.97;4953557;28;20358;-72
2022/02/16 00:52:55;;;;;;;0.50;0.50;;;;;;;5.14;63.14;98559.25;4936327;29;20031;-72
2022/02/16 00:55:20;;;;;;;0.50;0.50;;;;;;;5.20;62.71;98554.09;4953559;29;20027;-72
2022/02/16 00:57:46;;;;;;;0.50;0.50;;;;;;;5.16;63.67;98548.09;4953405;29;20388;-72
2022/02/16 05:16:23;;;;;;;1.20;1.20;;;;;;;5.36;77.73;98205.59;5509822;23;20040;-69
2022/02/16 05:18:49;;;;;;;2.30;1.33;;;;;;;5.66;73.89;98200.25;4957120;29;20283;-69
2022/02/16 05:21:15;;;;;;;7.03;1.63;;;;;;;5.54;76.35;98202.06;4956933;29;20051;-69
2022/02/16 05:23:40;;;;;;;0.90;0.90;;;;;;;5.32;79.27;98199.66;4939763;29;20031;-69
2022/02/16 05:26:06;;;;;;;2.10;1.90;;;;;;;5.39;76.79;98196.16;4948875;29;20027;-69
2022/02/16 05:28:31;;;;;;;1.92;1.83;;;;;;;5.28;79.14;98190.25;4938319;29;20031;-69
2022/02/16 05:30:56;;;;;;;2.13;1.77;;;;;;;5.47;75.90;98192.69;4937551;29;20488;-68
2022/02/16 05:33:22;;;;;;;3.53;2.05;;;;;;;5.33;79.71;98191.06;4943772;29;20362;-68
2022/02/16 05:35:48;;;;;;;2.42;1.63;;;;;;;5.24;81.44;98192.84;4948564;28;20038;-68
2022/02/16 05:38:14;;;;;;;1.63;1.55;;;;;;;5.13;81.77;98188.63;4956701;29;20028;-68
2022/02/16 05:40:39;;;;;;;2.80;2.55;;;;;;;5.09;82.71;98188.66;4956554;29;20039;-68
2022/02/16 05:43:05;;;;;;;5.90;3.20;;;;;;;5.04;84.01;98177.56;4956585;29;20035;-68
2022/02/16 05:45:31;;;;;;;2.03;1.75;;;;;;;5.10;82.55;98172.38;4956395;28;20027;-68
2022/02/16 05:47:56;;;;;;;3.15;2.33;;;;;;;5.03;83.78;98170.69;4956470;29;20400;-68
2022/02/16 05:50:22;;;;;;;1.23;1.23;;;;;;;5.01;84.90;98167.28;4956524;29;20027;-68
2022/02/16 05:52:47;;;;;;;2.80;2.35;;;;;;;4.96;84.70;98163.91;4956448;29;20031;-68
2022/02/16 05:55:12;;;;;;;2.28;1.42;;;;;;;4.97;85.30;98165.59;4956411;28;20469;-68
2022/02/16 05:57:38;;;;;;;4.90;2.65;;;;;;;5.00;82.88;98165.59;4956169;29;20030;-68
2022/02/16 06:00:05;;;;;;;4.25;2.25;;;;;;;5.11;84.21;98158.66;4955252;28;20055;-69
2022/02/16 06:02:31;;;;;;;4.80;2.50;;;;;;;4.90;85.64;98157.94;4955871;29;20032;-69
2022/02/16 06:04:56;;;;;;;1.73;1.58;;;;;;;4.98;84.73;98146.75;4948131;29;20089;-68
2022/02/16 06:07:22;;;;;;;1.13;1.13;;;;;;;4.89;86.00;98153.69;4956047;28;20465;-68
2022/02/16 06:09:47;;;;;;;5.88;2.83;;;;;;;4.88;87.54;98149.41;4956040;29;20034;-69
2022/02/16 06:12:12;;;;;;;0.80;0.80;;;;;;;5.12;83.98;98145.81;4956027;29;20031;-68
2022/02/16 06:14:37;;;;;;;5.15;1.77;;;;;;;5.09;83.82;98145.84;4955986;29;20038;-68
2022/02/16 06:17:03;;;;;;;1.23;1.17;;;;;;;5.16;83.10;98146.66;4955645;28;20031;-68
2022/02/16 06:19:28;;;;;;;2.45;2.25;;;;;;;5.15;84.57;98145.81;4955919;29;20082;-68
2022/02/16 06:21:54;;;;;;;3.83;2.85;;;;;;;5.07;86.04;98146.72;4955960;29;20077;-69
2022/02/16 06:24:20;;;;;;;1.98;1.88;;;;;;;5.09;86.82;98145.84;4955866;29;20073;-68
2022/02/16 06:26:46;;;;;;;1.65;1.55;;;;;;;5.29;85.54;98143.16;4955619;28;20027;-68
2022/02/16 06:29:11;;;;;;;1.80;1.70;;;;;;;4.97;86.68;98139.94;4955696;29;20488;-69
2022/02/16 06:31:37;;;;;;;1.65;1.33;;;;;;;4.98;87.09;98136.50;4955691;29;20151;-69
2022/02/16 06:34:02;;;;;;;3.30;1.45;;;;;;;4.89;86.80;98142.56;4947383;29;20063;-69
2022/02/16 06:36:28;;;;;;;1.95;1.80;;;;;;;5.02;86.62;98148.44;4955456;28;20027;-69
2022/02/16 06:38:53;;;;;;;0.55;0.55;;;;;;;5.63;78.07;98137.75;4955358;29;20155;-69
2022/02/16 06:41:19;;;;;;;1.52;1.42;;;;;;;5.80;79.13;98133.31;4955582;29;20082;-69
2022/02/16 06:43:44;;;;;;;1.08;0.75;;;;;;;5.67;80.00;98137.72;4955373;29;20034;-69
2022/02/16 06:46:10;;;;;;;0.55;0.55;;;;;;;6.05;75.88;98130.53;4955275;28;20023;-69
2022/02/16 06:48:35;;;;;;;1.20;1.10;;;;;;;6.02;76.25;98130.56;4955509;29;20027;-69
2022/02/16 06:51:00;;;;;;;0.88;0.88;;;;;;;5.92;79.44;98125.50;4955428;29;20058;-69
2022/02/16 06:53:26;;;;;;;2.60;1.55;;;;;;;5.77;79.64;98123.06;4955399;29;20110;-70
2022/02/16 06:55:51;;;;;;;0.70;0.70;;;;;;;5.92;77.61;98120.34;4955195;28;20063;-70
2022/02/16 06:58:17;;;;;;;1.05;0.88;;;;;;;5.85;78.59;98134.13;4955280;29;20044;-69
2022/02/16 07:00:43;;;;;;;0.40;0.40;;;;;;;6.19;76.53;98113.22;4955061;29;20050;-69
2022/02/16 07:03:08;;;;;;;0.75;0.75;;;;;;;6.35;74.93;98114.75;4951070;29;20019;-69
2022/02/16 07:05:33;;;;;;;0.57;0.57;;;;;;;6.38;75.65;98119.88;4950822;28;20042;-69
2022/02/16 07:07:59;;;;;;;0.68;0.68;;;;;;;6.42;74.90;98108.66;4954918;28;20030;-69
2022/02/16 07:10:25;;;;;;;0.52;0.52;;;;;;;6.44;74.99;98114.63;4954950;28;20050;-69
2022/02/16 07:12:51;;;;;;;1.02;0.85;;;;;;;6.48;72.77;98120.63;4954845;28;20057;-69
2022/02/16 07:15:16;;;;;;;0.40;0.40;;;;;;;6.46;74.01;98106.03;4954578;28;20058;-69
2022/02/16 07:17:42;;;;;;;0.50;0.50;;;;;;;6.38;75.33;98108.69;4954801;29;20031;-69
2022/02/16 07:20:10;;;;;;;0.52;0.52;;;;;;;6.41;76.31;98103.53;4954899;29;20028;-69
2022/02/16 07:22:44;;;;;;;0.63;0.63;;;;;;;6.54;74.09;98119.69;4954934;29;20039;-69
2022/02/16 07:25:10;;;;;;;0.50;0.50;;;;;;;6.53;74.81;98107.69;4954664;28;20122;-69
2022/02/16 07:27:35;;;;;;;0.90;0.57;;;;;;;6.40;77.50;98107.81;4954383;29;20455;-69
2022/02/16 07:30:03;;;;;;;0.40;0.40;;;;;;;6.41;74.44;98099.22;4954616;29;20026;-69
2022/02/16 07:32:28;;;;;;;1.10;1.02;;;;;;;6.46;76.07;98098.31;4954312;29;20027;-69
2022/02/16 07:34:54;;;;;;;2.17;0.80;;;;;;;6.64;74.69;98101.50;4946532;29;20149;-69
2022/02/16 07:37:19;;;;;;;3.30;0.77;;;;;;;6.63;74.85;98088.69;4937056;29;20037;-69
2022/02/16 07:39:44;;;;;;;0.77;0.77;;;;;;;6.55;75.96;98091.34;4954481;29;20028;-68
2022/02/16 07:42:10;;;;;;;0.63;0.63;;;;;;;6.54;77.27;98096.50;4937060;29;20519;-68
2022/02/16 07:44:35;;;;;;;1.25;1.25;;;;;;;6.70;75.12;98105.72;4954323;29;20019;-68
2022/02/16 07:47:02;;;;;;;0.85;0.85;;;;;;;6.53;76.29;98081.94;4953870;28;20081;-68
2022/02/16 07:49:27;;;;;;;9.32;1.00;;;;;;;6.60;76.36;98081.84;4954232;29;20038;-68
2022/02/16 07:51:53;;;;;;;1.88;1.73;;;;;;;6.59;76.27;98081.88;4954033;29;20119;-68
2022/02/16 07:54:18;;;;;;;1.10;0.80;;;;;;;6.70;75.17;98085.13;4954129;29;20050;-68
2022/02/16 07:56:44;;;;;;;0.50;0.50;;;;;;;6.65;76.38;98081.78;4953595;28;20110;-68
2022/02/16 07:59:09;;;;;;;0.50;0.50;;;;;;;6.56;78.22;98081.91;4954164;29;20031;-68
2022/02/16 08:01:35;;;;;;;0.70;0.70;;;;;;;6.62;75.63;98076.66;4936798;29;20150;-68
2022/02/16 08:04:18;;;;;;;0.50;0.50;;;;;;;6.57;75.59;98079.28;4945139;29;20102;-68
2022/02/16 08:06:45;;;;;;;0.50;0.50;;;;;;;6.44;75.70;98073.47;4953830;28;20035;-68
2022/02/16 08:09:11;;;;;;;0.57;0.57;;;;;;;6.47;79.35;98071.72;4953959;29;20085;-68
2022/02/16 08:11:41;;;;;;;0.50;0.50;;;;;;;6.49;78.09;98080.28;4954251;29;20019;-68
2022/02/16 08:14:07;;;;;;;0.50;0.50;;;;;;;6.57;77.42;98075.88;4953873;29;20019;-68
2022/02/16 08:16:35;;;;;;;0.50;0.50;;;;;;;6.61;77.44;98074.97;4953706;28;20043;-68
2022/02/16 08:19:04;;;;;;;0.40;0.40;;;;;;;6.58;77.97;98072.44;4953969;29;20035;-68
2022/02/16 08:21:30;;;;;;;0.50;0.50;;;;;;;6.62;77.63;98086.94;4953896;29;20023;-68
2022/02/16 08:23:55;;;;;;;0.60;0.60;;;;;;;6.63;78.08;98079.22;4953345;29;20102;-68
2022/02/16 08:26:20;;;;;;;7.82;2.50;;;;;;;6.64;78.50;98069.78;4953707;28;20362;-68
2022/02/16 08:28:46;;;;;;;0.50;0.50;;;;;;;6.65;79.40;98076.63;4936606;29;20078;-68
2022/02/16 08:31:12;;;;;;;0.40;0.40;;;;;;;6.58;81.06;98072.44;4953831;29;20024;-68
2022/02/16 08:33:37;;;;;;;0.40;0.40;;;;;;;6.46;80.69;98070.88;4945643;29;20024;-68
2022/02/16 08:36:04;;;;;;;0.50;0.50;;;;;;;6.42;80.59;98064.91;4953021;28;20480;-68
2022/02/16 08:38:30;;;;;;;0.50;0.50;;;;;;;6.41;79.45;98052.91;4953639;29;20019;-68
2022/02/16 08:40:55;;;;;;;0.50;0.50;;;;;;;6.40;79.98;98051.22;4953716;29;20030;-68
2022/02/16 08:43:21;;;;;;;0.50;0.50;;;;;;;6.42;80.39;98049.47;4953801;29;20043;-68
2022/02/16 08:45:46;;;;;;;0.95;0.70;;;;;;;6.42;80.70;98038.31;4953471;28;20031;-68
2022/02/16 08:48:12;;;;;;;0.50;0.50;;;;;;;6.32;80.44;98029.88;4953699;29;20038;-68
2022/02/16 08:50:37;;;;;;;0.50;0.50;;;;;;;6.30;81.71;98034.22;4953630;29;20035;-68
2022/02/16 08:53:03;;;;;;;0.43;0.43;;;;;;;6.31;83.48;98020.47;4953582;29;20039;-68
2022/02/16 08:55:28;;;;;;;0.50;0.50;;;;;;;6.34;82.53;98035.88;4953691;28;20026;-68
2022/02/16 08:57:53;;;;;;;0.80;0.80;;;;;;;6.38;80.95;98032.41;4953649;29;20038;-68
2022/02/16 09:00:19;;;;;;;0.50;0.50;;;;;;;6.40;81.85;98010.06;4936281;29;20498;-68
2022/02/16 09:02:45;;;;;;;0.40;0.40;;;;;;;6.40;80.75;98010.06;4952455;29;20472;-68
2022/02/16 09:05:10;;;;;;;0.50;0.50;;;;;;;6.44;81.44;98013.44;4945932;28;20388;-68
2022/02/16 09:07:36;;;;;;;0.50;0.50;;;;;;;6.49;83.13;98018.53;4953344;29;20031;-68
2022/02/16 09:10:07;;;;;;;0.88;0.88;;;;;;;6.62;81.29;98012.31;4953419;29;20019;-68
2022/02/16 09:12:33;;;;;;;0.50;0.50;;;;;;;6.72;83.82;98016.47;4953539;29;20106;-68
2022/02/16 09:14:58;;;;;;;0.50;0.50;;;;;;;6.63;82.14;98012.31;4953427;28;20063;-68
2022/02/16 09:17:25;;;;;;;0.50;0.50;;;;;;;6.39;83.95;97998.06;4953165;28;20031;-69
2022/02/16 09:19:52;;;;;;;0.50;0.50;;;;;;;6.32;84.64;97988.72;4953383;29;20120;-69
2022/02/16 09:22:18;;;;;;;0.50;0.50;;;;;;;6.27;87.55;97972.50;4936067;29;20385;-69
2022/02/16 09:24:44;;;;;;;0.40;0.40;;;;;;;6.22;85.80;97989.72;4953442;29;20039;-69
2022/02/16 09:27:10;;;;;;;0.50;0.50;;;;;;;6.28;86.05;97974.19;4953395;28;20428;-69
2022/02/16 09:29:35;;;;;;;0.50;0.50;;;;;;;6.23;87.46;97970.84;4953551;29;20103;-68
2022/02/16 09:32:01;;;;;;;0.50;0.50;;;;;;;6.20;89.90;97970.91;4952593;29;20102;-69
2022/02/16 09:34:26;;;;;;;0.50;0.50;;;;;;;6.25;87.81;97969.09;4945305;28;20028;-69
2022/02/16 09:36:51;;;;;;;0.50;0.50;;;;;;;6.37;85.55;97961.19;4955770;28;20037;-68
2022/02/16 09:39:17;;;;;;;0.57;0.57;;;;;;;6.40;86.64;97950.88;4939427;29;20503;-67
2022/02/16 09:41:44;;;;;;;0.65;0.65;;;;;;;6.54;83.96;97944.69;4939333;29;20035;-67
2022/02/16 09:44:12;;;;;;;0.50;0.50;;;;;;;6.53;85.98;97943.00;4956648;29;20047;-68
2022/02/16 09:46:39;;;;;;;0.60;0.60;;;;;;;6.55;85.28;97942.06;4939307;29;20477;-68
2022/02/16 09:49:04;;;;;;;0.60;0.60;;;;;;;6.62;85.05;97947.97;4939308;29;20029;-67
2022/02/16 09:51:29;;;;;;;0.40;0.40;;;;;;;6.73;86.16;97933.22;4956417;29;20019;-67
2022/02/16 09:53:55;;;;;;;0.55;0.55;;;;;;;6.72;84.93;97949.53;4956506;29;20027;-68
2022/02/16 09:56:21;;;;;;;0.50;0.50;;;;;;;6.83;85.64;97963.09;4956280;28;20508;-68
2022/02/16 09:58:46;;;;;;;0.40;0.40;;;;;;;6.85;84.06;97952.75;4956325;29;20027;-68
2022/02/16 10:01:13;;;;;;;0.70;0.70;;;;;;;6.94;83.57;97950.88;4956273;29;20023;-68
2022/02/16 10:03:56;;;;;;;0.50;0.50;;;;;;;7.00;85.11;97949.06;4948342;29;20091;-68
2022/02/16 10:06:40;;;;;;;0.65;0.65;;;;;;;6.92;84.60;97947.50;4938814;29;20023;-68
2022/02/16 10:09:07;;;;;;;0.50;0.50;;;;;;;6.91;84.25;97934.63;4956085;29;20099;-68
2022/02/16 10:11:33;;;;;;;0.40;0.40;;;;;;;6.98;83.62;97935.38;4956202;28;20086;-68
2022/02/16 10:14:34;;;;;;;0.40;0.40;;;;;;;7.14;84.51;97947.94;4956073;29;20027;-68
2022/02/16 10:17:15;;;;;;;0.50;0.50;;;;;;;7.29;81.98;97951.13;4938478;29;20031;-68
2022/02/16 10:19:47;;;;;;;0.50;0.50;;;;;;;7.35;82.20;97962.19;4955952;29;20090;-69
2022/02/16 10:22:12;;;;;;;0.40;0.40;;;;;;;7.33;80.77;97948.47;4955859;29;20039;-68
2022/02/16 10:24:38;;;;;;;0.50;0.50;;;;;;;7.37;80.99;97950.13;4955713;29;20031;-68
2022/02/16 10:27:03;;;;;;;0.40;0.40;;;;;;;7.46;81.37;97962.00;4955583;28;20114;-68
2022/02/16 10:29:32;;;;;;;0.60;0.60;;;;;;;7.48;80.43;97953.34;4955860;29;20058;-68
2022/02/16 10:31:59;;;;;;;0.85;0.85;;;;;;;7.62;80.21;97965.13;4955052;28;20109;-68
2022/02/16 10:34:47;;;;;;;0.82;0.80;;;;;;;7.48;82.64;97961.06;4947633;29;20086;-68
2022/02/16 10:37:14;;;;;;;0.98;0.50;;;;;;;7.71;80.65;97954.63;4955226;28;20031;-68
2022/02/16 10:39:39;;;;;;;0.93;0.93;;;;;;;7.77;79.70;97948.50;4955735;29;20488;-68
2022/02/16 10:42:09;;;;;;;1.25;1.17;;;;;;;7.78;78.91;97945.88;4955445;29;20023;-68
2022/02/16 10:44:35;;;;;;;0.40;0.40;;;;;;;7.72;78.37;97935.69;4955475;28;20035;-68
2022/02/16 10:47:06;;;;;;;0.50;0.50;;;;;;;7.90;78.76;97950.78;4954888;28;20043;-68
2022/02/16 10:49:34;;;;;;;0.50;0.50;;;;;;;7.86;78.05;97941.41;4955298;29;20118;-68
2022/02/16 10:52:15;;;;;;;0.43;0.43;;;;;;;7.94;78.25;97931.81;4955437;29;20027;-68
2022/02/16 10:55:00;;;;;;;0.40;0.40;;;;;;;8.00;77.53;97925.66;4955318;29;20037;-68
2022/02/16 10:57:28;;;;;;;0.50;0.50;;;;;;;8.12;77.76;97919.38;4955172;28;20388;-68
2022/02/16 10:59:54;;;;;;;0.50;0.50;;;;;;;8.25;77.34;97910.47;4955196;28;20037;-68
2022/02/16 11:02:23;;;;;;;0.45;0.45;;;;;;;8.23;77.44;97917.41;4954876;29;20464;-68
2022/02/16 11:04:51;;;;;;;0.45;0.45;;;;;;;8.22;76.04;97915.72;4947025;29;20038;-68
2022/02/16 11:07:22;;;;;;;0.40;0.40;;;;;;;8.41;76.18;97909.31;4937643;29;20023;-68
2022/02/16 11:09:52;;;;;;;0.40;0.40;;;;;;;8.26;76.29;97901.84;4955088;29;20387;-68
2022/02/16 11:12:17;;;;;;;0.40;0.40;;;;;;;8.44;76.35;97895.44;4955045;29;20232;-68
2022/02/16 11:14:43;;;;;;;0.40;0.40;;;;;;;8.48;76.82;97902.25;4954913;29;20500;-68
2022/02/16 11:17:10;;;;;;;0.40;0.40;;;;;;;8.45;76.31;97897.16;4954582;28;20031;-68
2022/02/16 11:19:36;;;;;;;0.50;0.50;;;;;;;8.54;75.81;97891.75;4954900;29;20129;-68
2022/02/16 11:22:14;;;;;;;0.40;0.40;;;;;;;8.59;75.92;97891.66;4954653;29;20030;-68
2022/02/16 11:24:46;;;;;;;4.80;0.93;;;;;;;8.61;75.93;97889.91;4954881;29;20031;-68
2022/02/16 11:27:34;;;;;;;0.40;0.40;;;;;;;8.56;75.56;97894.28;4954384;28;20031;-68
2022/02/16 11:30:05;;;;;;;0.40;0.40;;;;;;;8.55;76.42;97901.19;4955308;29;20031;-68
2022/02/16 11:32:33;;;;;;;0.32;0.32;;;;;;;8.56;76.10;97878.81;4953865;29;20151;-68
2022/02/16 11:35:19;;;;;;;0.30;0.30;;;;;;;8.58;76.82;97893.38;4946563;29;20034;-68
2022/02/16 11:38:10;;;;;;;0.45;0.45;;;;;;;8.66;76.20;97886.31;4954315;29;20023;-68
2022/02/16 11:40:44;;;;;;;0.40;0.40;;;;;;;8.70;75.48;97881.91;4954371;29;20027;-68
2022/02/16 11:43:12;;;;;;;0.40;0.40;;;;;;;8.79;75.36;97871.34;4954520;29;20404;-68
2022/02/16 11:45:42;;;;;;;0.47;0.47;;;;;;;8.85;75.68;97875.50;4954378;28;20374;-68
2022/02/16 11:48:08;;;;;;;;;;;;;;;8.97;75.22;97877.78;4954696;29;20090;-68
2022/02/16 11:50:36;;;;;;;0.40;0.40;;;;;;;8.90;75.14;97868.50;4954408;29;20263;-68
2022/02/16 11:53:07;;;;;;;0.50;0.50;;;;;;;9.06;74.87;97868.94;4954472;29;20046;-68
2022/02/16 11:55:45;;;;;;;0.40;0.40;;;;;;;9.01;74.38;97862.16;4954362;28;20066;-68
2022/02/16 11:58:13;;;;;;;0.40;0.40;;;;;;;9.03;75.83;97862.09;4953510;28;20090;-69
2022/02/16 12:00:59;;;;;;;0.50;0.50;;;;;;;9.22;75.67;97865.03;4954092;29;20539;-68
2022/02/16 12:03:38;;;;;;;0.40;0.40;;;;;;;9.10;75.19;97855.06;4947791;29;20031;-68
2022/02/16 12:06:13;;;;;;;0.40;0.40;;;;;;;9.21;74.83;97863.34;4953660;28;20046;-68
2022/02/16 12:08:47;;;;;;;0.40;0.40;;;;;;;9.18;76.06;97863.44;4953982;29;20293;-68
2022/02/16 12:11:15;;;;;;;0.40;0.40;;;;;;;9.39;75.71;97855.09;4954066;29;20476;-68
2022/02/16 12:14:04;;;;;;;0.50;0.50;;;;;;;9.26;76.36;97859.75;4954118;29;20396;-69
2022/02/16 12:16:36;;;;;;;0.30;0.30;;;;;;;9.39;75.71;97867.19;4941126;28;20411;-68
2022/02/16 12:19:05;;;;;;;0.50;0.50;;;;;;;9.38;75.46;97850.81;4954039;29;20023;-68
2022/02/16 12:21:36;;;;;;;0.30;0.30;;;;;;;9.44;76.77;97855.81;4953795;29;20023;-68
2022/02/16 12:24:10;;;;;;;0.40;0.40;;;;;;;9.48;76.29;97851.41;4953864;29;20035;-68
2022/02/16 12:26:44;;;;;;;0.40;0.40;;;;;;;9.53;76.15;97859.88;4953891;28;20384;-68
2022/02/16 12:29:17;;;;;;;0.40;0.40;;;;;;;9.47;77.88;97850.53;4953931;29;20481;-68
2022/02/16 12:31:44;;;;;;;0.50;0.50;;;;;;;9.40;79.54;97851.63;4953044;29;20106;-67
2022/02/16 12:34:17;;;;;;;0.50;0.50;;;;;;;9.40;80.15;97849.03;4945781;28;20042;-68
2022/02/16 12:36:51;;;;;;;0.40;0.40;;;;;;;9.38;81.02;97835.31;4953722;28;20019;-68
2022/02/16 12:39:18;;;;;;;0.60;0.60;;;;;;;9.38;82.55;97832.72;4953749;29;20019;-68
2022/02/16 12:41:46;;;;;;;2.95;2.20;;;;;;;9.42;82.55;97829.13;4953837;29;20030;-70
2022/02/16 12:44:16;;;;;;;0.40;0.40;;;;;;;9.40;81.70;97828.34;4954212;29;20057;-70
2022/02/16 12:46:45;;;;;;;0.60;0.60;;;;;;;9.44;81.78;97821.38;4953565;28;20031;-70
2022/02/16 12:49:13;;;;;;;0.40;0.40;;;;;;;9.35;82.28;97806.97;4953724;29;20031;-68
2022/02/16 12:51:41;;;;;;;0.60;0.60;;;;;;;9.31;83.27;97791.56;4953768;29;20027;-68
2022/02/16 12:54:10;;;;;;;0.40;0.40;;;;;;;9.34;82.06;97794.09;4953741;29;20027;-68
2022/02/16 12:56:38;;;;;;;0.40;0.40;;;;;;;9.33;83.12;97801.00;4953487;28;20028;-68
2022/02/16 12:59:33;;;;;;;0.40;0.40;;;;;;;9.45;82.81;97795.44;4953558;29;20034;-68
2022/02/16 13:02:20;;;;;;;0.70;0.70;;;;;;;9.50;81.64;97793.56;4928276;29;20079;-68
2022/02/16 13:05:00;;;;;;;0.30;0.30;;;;;;;9.63;81.69;97782.88;4945515;29;20034;-68
2022/02/16 13:07:31;;;;;;;0.40;0.40;;;;;;;9.44;82.91;97778.25;4953322;28;20363;-68
2022/02/16 13:09:58;;;;;;;0.40;0.40;;;;;;;9.45;83.56;97764.44;4955189;28;20031;-68
2022/02/16 13:12:48;;;;;;;0.45;0.45;;;;;;;9.52;83.18;97770.25;4957320;29;20023;-68
2022/02/16 13:15:15;;;;;;;;;;;;;;;9.53;82.18;97762.47;4957418;28;20027;-68
2022/02/16 13:17:48;;;;;;;1.20;0.55;;;;;;;9.51;81.77;97756.47;4956950;29;19914;-68
2022/02/16 13:20:32;;;;;;;0.40;0.40;;;;;;;9.60;81.67;97751.94;4956974;29;20023;-67
2022/02/16 13:23:02;;;;;;;0.40;0.40;;;;;;;9.74;80.62;97744.59;4957180;29;20027;-67
2022/02/16 13:25:35;;;;;;;0.43;0.43;;;;;;;9.73;79.75;97753.25;4956929;28;20034;-67
2022/02/16 13:28:05;;;;;;;0.50;0.50;;;;;;;9.76;79.95;97747.97;4957266;28;20035;-70
2022/02/16 13:30:32;;;;;;;0.40;0.40;;;;;;;9.80;77.89;97746.97;4956838;28;20034;-68
2022/02/16 13:32:59;;;;;;;0.40;0.40;;;;;;;9.80;79.25;97744.38;4954218;29;20031;-68
2022/02/16 13:35:29;;;;;;;0.40;0.40;;;;;;;9.83;78.84;97744.31;4951174;28;20031;-68
2022/02/16 13:38:02;;;;;;;0.30;0.30;;;;;;;9.85;78.51;97752.84;4956989;29;20472;-68
2022/02/16 13:40:46;;;;;;;0.50;0.50;;;;;;;9.84;78.58;97730.47;4939408;29;20028;-68
2022/02/16 13:43:12;;;;;;;0.32;0.32;;;;;;;9.86;78.49;97748.53;4956875;29;20031;-68
2022/02/16 13:45:38;;;;;;;0.40;0.40;;;;;;;9.93;77.90;97740.53;4956532;28;20027;-68
2022/02/16 13:48:05;;;;;;;0.30;0.30;;;;;;;9.85;78.26;97758.03;4956687;29;20384;-68
2022/02/16 13:50:37;;;;;;;0.80;0.80;;;;;;;9.85;79.00;97750.25;4939248;29;20034;-68
2022/02/16 13:53:05;;;;;;;0.40;0.40;;;;;;;9.81;79.18;97756.44;4956357;29;20496;-68
2022/02/16 13:55:49;;;;;;;0.52;0.52;;;;;;;9.87;78.55;97751.06;4956405;28;20058;-68
2022/02/16 13:58:16;;;;;;;0.43;0.43;;;;;;;9.85;78.83;97755.44;4956506;29;20504;-68
2022/02/16 14:00:42;;;;;;;0.47;0.47;;;;;;;9.81;79.11;97753.00;4939112;29;20050;-68
2022/02/16 14:03:14;;;;;;;0.40;0.40;;;;;;;9.94;78.40;97747.38;4952123;28;20028;-68
2022/02/16 14:05:40;;;;;;;0.55;0.40;;;;;;;9.94;79.04;97749.97;4952381;28;20023;-68
2022/02/16 14:08:06;;;;;;;0.30;0.30;;;;;;;9.97;78.66;97744.72;4956299;29;20019;-68
2022/02/16 14:10:34;;;;;;;0.57;0.57;;;;;;;9.97;79.16;97752.47;4956311;29;20507;-68
2022/02/16 14:13:00;;;;;;;0.40;0.40;;;;;;;10.01;79.14;97763.59;4956045;28;20500;-68
2022/02/16 14:15:26;;;;;;;0.40;0.40;;;;;;;10.00;78.91;97751.50;4955850;28;20397;-68
2022/02/16 14:17:51;;;;;;;0.30;0.30;;;;;;;10.08;79.05;97759.03;4938572;29;20042;-68
2022/02/16 14:20:18;;;;;;;1.13;1.05;;;;;;;10.09;79.81;97765.91;4955825;28;20358;-67
2022/02/16 14:22:44;;;;;;;0.40;0.40;;;;;;;10.05;79.97;97763.41;4955170;29;20031;-67
2022/02/16 14:25:09;;;;;;;0.70;0.70;;;;;;;10.18;78.89;97770.78;4938693;28;20114;-67
2022/02/16 14:27:35;;;;;;;0.80;0.80;;;;;;;10.20;79.04;97768.97;4938698;29;20034;-67
2022/02/16 14:30:01;;;;;;;0.40;0.40;;;;;;;10.16;79.42;97772.59;4955761;29;20452;-67
2022/02/16 14:32:27;;;;;;;0.40;0.40;;;;;;;10.26;79.22;97763.66;4955100;29;20128;-68
2022/02/16 14:34:58;;;;;;;0.40;0.40;;;;;;;10.25;79.32;97761.94;4947431;28;20027;-67
2022/02/16 14:37:26;;;;;;;0.63;0.47;;;;;;;10.33;78.84;97753.94;4955734;28;20041;-68
2022/02/16 14:39:52;;;;;;;0.80;0.80;;;;;;;10.32;78.93;97760.00;4938297;29;20034;-68
2022/02/16 14:42:17;;;;;;;0.40;0.40;;;;;;;10.32;79.21;97747.91;4955703;29;20106;-67
2022/02/16 14:44:43;;;;;;;0.45;0.45;;;;;;;10.35;78.53;97753.00;4955484;29;20439;-67
2022/02/16 14:47:08;;;;;;;1.30;0.95;;;;;;;10.41;78.25;97757.97;4955206;28;20353;-69
2022/02/16 14:49:34;;;;;;;0.60;0.60;;;;;;;10.47;78.38;97741.38;4936996;28;20027;-67
2022/02/16 14:51:59;;;;;;;0.30;0.30;;;;;;;10.46;78.94;97745.69;4919315;29;20102;-68
2022/02/16 14:54:30;;;;;;;0.30;0.30;;;;;;;10.53;77.91;97729.03;4936144;29;20086;-67
2022/02/16 14:56:56;;;;;;;0.40;0.40;;;;;;;10.54;78.49;97722.16;4935953;29;20393;-67
2022/02/16 14:59:23;;;;;;;0.40;0.40;;;;;;;10.54;79.18;97716.97;4936122;29;20036;-68
2022/02/16 15:01:48;;;;;;;0.65;0.40;;;;;;;10.50;78.26;97710.19;4919524;29;20111;-69
2022/02/16 15:04:14;;;;;;;1.02;1.02;;;;;;;10.45;79.23;97722.47;4947033;29;20034;-68
2022/02/16 15:06:40;;;;;;;0.35;0.35;;;;;;;10.48;78.87;97722.34;4954818;28;20063;-68
2022/02/16 15:09:06;;;;;;;0.40;0.40;;;;;;;10.55;78.73;97724.66;4937699;29;20539;-69
2022/02/16 15:11:31;;;;;;;0.30;0.30;;;;;;;10.52;78.30;97729.94;4955043;28;20070;-68
2022/02/16 15:13:56;;;;;;;0.60;0.60;;;;;;;10.55;78.37;97739.38;4937662;29;20039;-67
2022/02/16 15:16:22;;;;;;;0.40;0.40;;;;;;;10.54;78.92;97735.94;4954417;28;20035;-67
2022/02/16 15:18:47;;;;;;;0.38;0.38;;;;;;;10.53;78.55;97730.78;4954815;28;20019;-67
2022/02/16 15:21:12;;;;;;;0.40;0.40;;;;;;;10.50;78.51;97746.44;4955093;28;20045;-68
2022/02/16 15:23:38;;;;;;;0.43;0.43;;;;;;;10.49;78.62;97740.44;4954711;29;20455;-68
2022/02/16 15:26:06;;;;;;;0.30;0.30;;;;;;;10.50;78.72;97741.28;4954642;28;20034;-68
2022/02/16 15:28:33;;;;;;;0.35;0.35;;;;;;;10.47;78.69;97737.03;4954663;29;20073;-68
2022/02/16 15:30:58;;;;;;;0.40;0.40;;;;;;;10.41;79.34;97747.59;4954566;28;20023;-69
2022/02/16 15:33:24;;;;;;;0.38;0.38;;;;;;;10.37;78.96;97756.38;4948147;28;20038;-69
2022/02/16 15:35:53;;;;;;;0.40;0.40;;;;;;;10.36;78.80;97744.31;4937113;29;20031;-68
2022/02/16 15:38:19;;;;;;;0.80;0.35;;;;;;;10.43;78.75;97758.75;4954673;29;20102;-69
2022/02/16 15:40:44;;;;;;;0.30;0.30;;;;;;;10.34;79.07;97756.47;4954389;28;20442;-68
2022/02/16 15:43:10;;;;;;;0.82;0.82;;;;;;;10.34;79.33;97748.69;4954480;29;20465;-68
2022/02/16 15:45:35;;;;;;;0.82;0.82;;;;;;;10.35;79.50;97767.66;4954118;28;20027;-68
2022/02/16 15:48:01;;;;;;;0.70;0.70;;;;;;;10.25;79.99;97756.75;4954227;28;20027;-69
2022/02/16 15:50:27;;;;;;;1.52;1.27;;;;;;;10.41;78.74;97741.59;4954235;28;20019;-68
2022/02/16 15:52:53;;;;;;;0.40;0.40;;;;;;;10.38;78.87;97739.94;4954303;28;20086;-69
2022/02/16 15:55:19;;;;;;;0.40;0.40;;;;;;;10.51;78.21;97742.94;4954139;28;20027;-69
2022/02/16 15:57:45;;;;;;;0.47;0.38;;;;;;;10.40;78.83;97753.69;4953979;29;20388;-68
2022/02/16 16:00:11;;;;;;;2.28;0.90;;;;;;;10.45;78.45;97759.56;4953894;29;20062;-69
2022/02/16 16:02:38;;;;;;;4.45;2.03;;;;;;;10.43;78.65;97755.31;4953569;29;20114;-69